sensor_id;sensor_type;location;lat;lon;timestamp;P1;durP1;ratioP1;P2;durP2;ratioP2
14592;SDS011;7383;52.354;9.756;2023-02-13T00:00:56;7.95;;;7.15;;
14592;SDS011;7383;52.354;9.756;2023-02-13T00:03:22;8.00;;;7.07;;
14592;SDS011;7383;52.354;9.756;2023-02-13T00:05:49;8.00;;;7.30;;
14592;SDS011;7383;52.354;9.756;2023-02-13T00:08:17;7.80;;;7.10;;
14592;SDS011;7383;52.354;9.756;2023-02-13T00:10:43;8.23;;;7.43;;
14592;SDS011;7383;52.354;9.756;2023-02-13T00:13:10;8.52;;;7.63;;
14592;SDS011;7383;52.354;9.756;2023-02-13T00:15:36;7.75;;;7.05;;
14592;SDS011;7383;52.354;9.756;2023-02-13T00:18:03;9.13;;;8.23;;
14592;SDS011;7383;52.354;9.756;2023-02-13T00:20:30;8.70;;;7.90;;
14592;SDS011;7383;52.354;9.756;2023-02-13T00:22:57;8.05;;;7.35;;
14592;SDS011;7383;52.354;9.756;2023-02-13T00:25:24;8.40;;;7.60;;
14592;SDS011;7383;52.354;9.756;2023-02-13T00:27:51;7.75;;;7.05;;
14592;SDS011;7383;52.354;9.756;2023-02-13T00:30:18;8.52;;;7.72;;
14592;SDS011;7383;52.354;9.756;2023-02-13T00:32:45;8.07;;;7.32;;
14592;SDS011;7383;52.354;9.756;2023-02-13T00:35:11;8.45;;;7.68;;
14592;SDS011;7383;52.354;9.756;2023-02-13T00:37:38;9.25;;;8.05;;
14592;SDS011;7383;52.354;9.756;2023-02-13T00:40:05;8.52;;;7.70;;
14592;SDS011;7383;52.354;9.756;2023-02-13T00:42:33;8.65;;;7.75;;
14592;SDS011;7383;52.354;9.756;2023-02-13T00:45:00;9.02;;;8.13;;
14592;SDS011;7383;52.354;9.756;2023-02-13T00:47:26;9.00;;;8.20;;
14592;SDS011;7383;52.354;9.756;2023-02-13T00:49:53;8.40;;;7.55;;
14592;SDS011;7383;52.354;9.756;2023-02-13T00:52:20;8.65;;;7.85;;
14592;SDS011;7383;52.354;9.756;2023-02-13T00:54:46;7.95;;;7.20;;
14592;SDS011;7383;52.354;9.756;2023-02-13T00:57:13;8.63;;;7.82;;
14592;SDS011;7383;52.354;9.756;2023-02-13T00:59:41;8.35;;;7.57;;
14592;SDS011;7383;52.354;9.756;2023-02-13T01:02:07;8.65;;;7.78;;
14592;SDS011;7383;52.354;9.756;2023-02-13T01:04:34;8.60;;;7.80;;
14592;SDS011;7383;52.354;9.756;2023-02-13T01:07:00;8.73;;;7.68;;
14592;SDS011;7383;52.354;9.756;2023-02-13T01:09:26;8.45;;;7.55;;
14592;SDS011;7383;52.354;9.756;2023-02-13T01:11:53;8.13;;;7.32;;
14592;SDS011;7383;52.354;9.756;2023-02-13T01:14:19;9.25;;;8.35;;
14592;SDS011;7383;52.354;9.756;2023-02-13T01:16:47;8.43;;;7.63;;
14592;SDS011;7383;52.354;9.756;2023-02-13T01:19:14;8.43;;;7.53;;
14592;SDS011;7383;52.354;9.756;2023-02-13T01:21:41;8.20;;;7.40;;
14592;SDS011;7383;52.354;9.756;2023-02-13T01:24:07;8.45;;;7.57;;
14592;SDS011;7383;52.354;9.756;2023-02-13T01:26:34;9.32;;;8.32;;
14592;SDS011;7383;52.354;9.756;2023-02-13T01:29:00;8.68;;;7.80;;
14592;SDS011;7383;52.354;9.756;2023-02-13T01:31:27;7.93;;;7.22;;
14592;SDS011;7383;52.354;9.756;2023-02-13T01:33:56;8.80;;;7.90;;
14592;SDS011;7383;52.354;9.756;2023-02-13T01:36:23;8.05;;;7.25;;
14592;SDS011;7383;52.354;9.756;2023-02-13T01:38:51;7.85;;;7.10;;
14592;SDS011;7383;52.354;9.756;2023-02-13T01:41:19;8.20;;;7.40;;
14592;SDS011;7383;52.354;9.756;2023-02-13T01:43:47;7.90;;;7.18;;
14592;SDS011;7383;52.354;9.756;2023-02-13T01:46:17;8.10;;;7.30;;
14592;SDS011;7383;52.354;9.756;2023-02-13T01:48:47;8.27;;;7.47;;
14592;SDS011;7383;52.354;9.756;2023-02-13T01:51:18;8.13;;;7.32;;
14592;SDS011;7383;52.354;9.756;2023-02-13T01:53:47;8.75;;;7.85;;
14592;SDS011;7383;52.354;9.756;2023-02-13T01:56:19;8.60;;;7.75;;
14592;SDS011;7383;52.354;9.756;2023-02-13T01:58:49;8.10;;;7.40;;
14592;SDS011;7383;52.354;9.756;2023-02-13T02:01:18;8.25;;;7.45;;
14592;SDS011;7383;52.354;9.756;2023-02-13T02:03:46;8.88;;;7.97;;
14592;SDS011;7383;52.354;9.756;2023-02-13T02:06:22;8.90;;;7.97;;
14592;SDS011;7383;52.354;9.756;2023-02-13T02:08:51;8.00;;;7.20;;
14592;SDS011;7383;52.354;9.756;2023-02-13T02:11:22;8.38;;;7.47;;
14592;SDS011;7383;52.354;9.756;2023-02-13T02:13:55;8.45;;;7.57;;
14592;SDS011;7383;52.354;9.756;2023-02-13T02:16:23;8.85;;;7.90;;
14592;SDS011;7383;52.354;9.756;2023-02-13T02:18:50;8.52;;;7.63;;
14592;SDS011;7383;52.354;9.756;2023-02-13T02:24:34;9.10;;;8.20;;
14592;SDS011;7383;52.354;9.756;2023-02-13T02:27:37;8.60;;;7.70;;
14592;SDS011;7383;52.354;9.756;2023-02-13T02:30:25;8.00;;;7.20;;
14592;SDS011;7383;52.354;9.756;2023-02-13T02:33:12;8.27;;;7.47;;
14592;SDS011;7383;52.354;9.756;2023-02-13T02:35:48;8.38;;;7.57;;
14592;SDS011;7383;52.354;9.756;2023-02-13T02:38:26;7.95;;;7.22;;
14592;SDS011;7383;52.354;9.756;2023-02-13T02:41:05;8.10;;;7.20;;
14592;SDS011;7383;52.354;9.756;2023-02-13T02:43:40;7.78;;;6.97;;
14592;SDS011;7383;52.354;9.756;2023-02-13T02:46:24;8.52;;;7.63;;
14592;SDS011;7383;52.354;9.756;2023-02-13T02:49:00;8.30;;;7.50;;
14592;SDS011;7383;52.354;9.756;2023-02-13T02:51:51;8.45;;;7.57;;
14592;SDS011;7383;52.354;9.756;2023-02-13T02:54:23;9.05;;;8.15;;
14592;SDS011;7383;52.354;9.756;2023-02-13T02:57:14;8.15;;;7.35;;
14592;SDS011;7383;52.354;9.756;2023-02-13T02:59:45;8.55;;;7.65;;
14592;SDS011;7383;52.354;9.756;2023-02-13T03:02:31;8.30;;;7.50;;
14592;SDS011;7383;52.354;9.756;2023-02-13T03:05:18;7.65;;;6.95;;
14592;SDS011;7383;52.354;9.756;2023-02-13T03:08:05;7.65;;;6.65;;
14592;SDS011;7383;52.354;9.756;2023-02-13T03:10:32;8.07;;;7.25;;
14592;SDS011;7383;52.354;9.756;2023-02-13T03:13:28;7.88;;;7.07;;
14592;SDS011;7383;52.354;9.756;2023-02-13T03:16:00;7.88;;;7.03;;
14592;SDS011;7383;52.354;9.756;2023-02-13T03:18:45;7.57;;;6.75;;
14592;SDS011;7383;52.354;9.756;2023-02-13T03:21:37;7.60;;;6.90;;
14592;SDS011;7383;52.354;9.756;2023-02-13T03:24:32;7.78;;;6.97;;
14592;SDS011;7383;52.354;9.756;2023-02-13T03:27:07;7.90;;;6.50;;
14592;SDS011;7383;52.354;9.756;2023-02-13T03:29:40;7.65;;;6.85;;
14592;SDS011;7383;52.354;9.756;2023-02-13T03:32:32;7.88;;;7.07;;
14592;SDS011;7383;52.354;9.756;2023-02-13T03:35:08;8.05;;;7.25;;
14592;SDS011;7383;52.354;9.756;2023-02-13T03:38:04;6.97;;;6.28;;
14592;SDS011;7383;52.354;9.756;2023-02-13T03:40:36;8.05;;;6.75;;
14592;SDS011;7383;52.354;9.756;2023-02-13T03:43:24;6.95;;;6.35;;
14592;SDS011;7383;52.354;9.756;2023-02-13T03:45:55;7.03;;;6.35;;
14592;SDS011;7383;52.354;9.756;2023-02-13T03:48:25;7.03;;;6.32;;
14592;SDS011;7383;52.354;9.756;2023-02-13T03:51:26;6.82;;;6.15;;
14592;SDS011;7383;52.354;9.756;2023-02-13T03:53:59;6.90;;;6.20;;
14592;SDS011;7383;52.354;9.756;2023-02-13T03:56:29;7.03;;;6.03;;
14592;SDS011;7383;52.354;9.756;2023-02-13T03:59:17;6.32;;;5.72;;
14592;SDS011;7383;52.354;9.756;2023-02-13T04:01:53;7.03;;;6.32;;
14592;SDS011;7383;52.354;9.756;2023-02-13T04:04:28;7.43;;;6.65;;
14592;SDS011;7383;52.354;9.756;2023-02-13T04:07:01;7.13;;;6.43;;
14592;SDS011;7383;52.354;9.756;2023-02-13T04:09:32;6.97;;;6.28;;
14592;SDS011;7383;52.354;9.756;2023-02-13T04:12:04;6.93;;;6.25;;
14592;SDS011;7383;52.354;9.756;2023-02-13T04:14:38;7.00;;;6.30;;
14592;SDS011;7383;52.354;9.756;2023-02-13T04:17:09;6.82;;;6.22;;
14592;SDS011;7383;52.354;9.756;2023-02-13T04:19:41;6.45;;;5.68;;
14592;SDS011;7383;52.354;9.756;2023-02-13T04:22:07;6.70;;;6.07;;
14592;SDS011;7383;52.354;9.756;2023-02-13T04:24:35;6.47;;;5.85;;
14592;SDS011;7383;52.354;9.756;2023-02-13T04:27:02;6.95;;;6.22;;
14592;SDS011;7383;52.354;9.756;2023-02-13T04:29:29;6.85;;;6.25;;
14592;SDS011;7383;52.354;9.756;2023-02-13T04:31:55;6.80;;;6.07;;
14592;SDS011;7383;52.354;9.756;2023-02-13T04:34:22;6.72;;;6.03;;
14592;SDS011;7383;52.354;9.756;2023-02-13T04:36:48;6.18;;;5.68;;
14592;SDS011;7383;52.354;9.756;2023-02-13T04:39:15;7.15;;;6.45;;
14592;SDS011;7383;52.354;9.756;2023-02-13T04:41:43;7.43;;;6.60;;
14592;SDS011;7383;52.354;9.756;2023-02-13T04:44:09;7.00;;;6.00;;
14592;SDS011;7383;52.354;9.756;2023-02-13T04:46:36;7.38;;;6.68;;
14592;SDS011;7383;52.354;9.756;2023-02-13T04:49:05;7.00;;;6.30;;
14592;SDS011;7383;52.354;9.756;2023-02-13T04:51:32;6.53;;;5.88;;
14592;SDS011;7383;52.354;9.756;2023-02-13T04:53:58;7.82;;;5.95;;
14592;SDS011;7383;52.354;9.756;2023-02-13T04:56:25;6.78;;;5.80;;
14592;SDS011;7383;52.354;9.756;2023-02-13T04:58:53;6.88;;;6.18;;
14592;SDS011;7383;52.354;9.756;2023-02-13T05:01:20;6.32;;;5.72;;
14592;SDS011;7383;52.354;9.756;2023-02-13T05:03:49;7.03;;;6.22;;
14592;SDS011;7383;52.354;9.756;2023-02-13T05:06:15;6.32;;;5.72;;
14592;SDS011;7383;52.354;9.756;2023-02-13T05:08:42;6.20;;;5.60;;
14592;SDS011;7383;52.354;9.756;2023-02-13T05:11:08;6.68;;;5.90;;
14592;SDS011;7383;52.354;9.756;2023-02-13T05:13:35;6.43;;;5.82;;
14592;SDS011;7383;52.354;9.756;2023-02-13T05:16:02;6.22;;;5.63;;
14592;SDS011;7383;52.354;9.756;2023-02-13T05:18:29;6.68;;;6.03;;
14592;SDS011;7383;52.354;9.756;2023-02-13T05:20:56;6.75;;;6.15;;
14592;SDS011;7383;52.354;9.756;2023-02-13T05:23:54;6.55;;;5.85;;
14592;SDS011;7383;52.354;9.756;2023-02-13T05:26:21;6.70;;;5.70;;
14592;SDS011;7383;52.354;9.756;2023-02-13T05:28:47;6.60;;;6.00;;
14592;SDS011;7383;52.354;9.756;2023-02-13T05:31:33;6.75;;;6.03;;
14592;SDS011;7383;52.354;9.756;2023-02-13T05:33:59;5.93;;;5.40;;
14592;SDS011;7383;52.354;9.756;2023-02-13T05:36:26;5.85;;;5.18;;
14592;SDS011;7383;52.354;9.756;2023-02-13T05:38:52;6.07;;;5.57;;
14592;SDS011;7383;52.354;9.756;2023-02-13T05:41:19;6.07;;;5.57;;
14592;SDS011;7383;52.354;9.756;2023-02-13T05:43:46;6.30;;;5.70;;
14592;SDS011;7383;52.354;9.756;2023-02-13T05:46:12;6.18;;;5.57;;
14592;SDS011;7383;52.354;9.756;2023-02-13T05:48:40;6.50;;;5.90;;
14592;SDS011;7383;52.354;9.756;2023-02-13T05:51:06;6.78;;;6.07;;
14592;SDS011;7383;52.354;9.756;2023-02-13T05:53:33;6.63;;;6.00;;
14592;SDS011;7383;52.354;9.756;2023-02-13T05:56:00;6.47;;;5.63;;
14592;SDS011;7383;52.354;9.756;2023-02-13T05:58:27;6.90;;;6.20;;
14592;SDS011;7383;52.354;9.756;2023-02-13T06:00:54;6.90;;;6.20;;
14592;SDS011;7383;52.354;9.756;2023-02-13T06:03:22;7.07;;;6.40;;
14592;SDS011;7383;52.354;9.756;2023-02-13T06:05:50;6.60;;;6.00;;
14592;SDS011;7383;52.354;9.756;2023-02-13T06:08:16;6.38;;;5.82;;
14592;SDS011;7383;52.354;9.756;2023-02-13T06:10:43;6.07;;;5.55;;
14592;SDS011;7383;52.354;9.756;2023-02-13T06:13:09;6.72;;;6.05;;
14592;SDS011;7383;52.354;9.756;2023-02-13T06:15:36;5.97;;;5.47;;
14592;SDS011;7383;52.354;9.756;2023-02-13T06:18:02;5.68;;;5.18;;
14592;SDS011;7383;52.354;9.756;2023-02-13T06:20:29;6.32;;;5.72;;
14592;SDS011;7383;52.354;9.756;2023-02-13T06:22:57;5.93;;;5.43;;
14592;SDS011;7383;52.354;9.756;2023-02-13T06:25:23;5.40;;;4.90;;
14592;SDS011;7383;52.354;9.756;2023-02-13T06:27:50;5.15;;;4.65;;
14592;SDS011;7383;52.354;9.756;2023-02-13T06:30:17;5.50;;;5.00;;
14592;SDS011;7383;52.354;9.756;2023-02-13T06:32:45;5.40;;;4.90;;
14592;SDS011;7383;52.354;9.756;2023-02-13T06:35:12;6.22;;;5.55;;
14592;SDS011;7383;52.354;9.756;2023-02-13T06:37:39;5.50;;;5.00;;
14592;SDS011;7383;52.354;9.756;2023-02-13T06:40:09;5.40;;;4.90;;
14592;SDS011;7383;52.354;9.756;2023-02-13T06:42:36;4.82;;;4.43;;
14592;SDS011;7383;52.354;9.756;2023-02-13T06:45:04;5.80;;;5.20;;
14592;SDS011;7383;52.354;9.756;2023-02-13T06:47:32;5.47;;;4.95;;
14592;SDS011;7383;52.354;9.756;2023-02-13T06:49:58;5.55;;;5.05;;
14592;SDS011;7383;52.354;9.756;2023-02-13T06:52:25;6.10;;;4.70;;
14592;SDS011;7383;52.354;9.756;2023-02-13T06:54:51;5.32;;;4.82;;
14592;SDS011;7383;52.354;9.756;2023-02-13T06:57:19;5.10;;;4.60;;
14592;SDS011;7383;52.354;9.756;2023-02-13T06:59:45;4.93;;;4.43;;
14592;SDS011;7383;52.354;9.756;2023-02-13T07:02:12;5.80;;;5.30;;
14592;SDS011;7383;52.354;9.756;2023-02-13T07:04:41;5.38;;;4.88;;
14592;SDS011;7383;52.354;9.756;2023-02-13T07:07:07;6.18;;;5.57;;
14592;SDS011;7383;52.354;9.756;2023-02-13T07:09:34;5.30;;;4.85;;
14592;SDS011;7383;52.354;9.756;2023-02-13T07:12:01;4.95;;;4.55;;
14592;SDS011;7383;52.354;9.756;2023-02-13T07:14:29;5.18;;;4.72;;
14592;SDS011;7383;52.354;9.756;2023-02-13T07:16:56;4.75;;;4.35;;
14592;SDS011;7383;52.354;9.756;2023-02-13T07:19:22;5.05;;;4.60;;
14592;SDS011;7383;52.354;9.756;2023-02-13T07:21:49;5.28;;;4.88;;
14592;SDS011;7383;52.354;9.756;2023-02-13T07:24:15;5.75;;;5.20;;
14592;SDS011;7383;52.354;9.756;2023-02-13T07:26:42;5.45;;;5.03;;
14592;SDS011;7383;52.354;9.756;2023-02-13T07:29:09;5.45;;;4.95;;
14592;SDS011;7383;52.354;9.756;2023-02-13T07:31:36;5.50;;;5.00;;
14592;SDS011;7383;52.354;9.756;2023-02-13T07:34:03;5.22;;;4.72;;
14592;SDS011;7383;52.354;9.756;2023-02-13T07:36:30;5.07;;;4.57;;
14592;SDS011;7383;52.354;9.756;2023-02-13T07:39:06;5.43;;;4.93;;
14592;SDS011;7383;52.354;9.756;2023-02-13T07:51:28;5.20;;;4.80;;
14592;SDS011;7383;52.354;9.756;2023-02-13T07:56:11;5.32;;;4.82;;
14592;SDS011;7383;52.354;9.756;2023-02-13T07:57:53;5.72;;;5.13;;
14592;SDS011;7383;52.354;9.756;2023-02-13T08:03:11;7.00;;;6.40;;
14592;SDS011;7383;52.354;9.756;2023-02-13T08:05:38;5.78;;;5.18;;
14592;SDS011;7383;52.354;9.756;2023-02-13T08:08:08;5.22;;;4.72;;
14592;SDS011;7383;52.354;9.756;2023-02-13T08:10:35;5.35;;;4.85;;
14592;SDS011;7383;52.354;9.756;2023-02-13T08:13:19;5.28;;;4.78;;
14592;SDS011;7383;52.354;9.756;2023-02-13T08:15:45;5.45;;;4.93;;
14592;SDS011;7383;52.354;9.756;2023-02-13T08:18:12;5.40;;;4.90;;
14592;SDS011;7383;52.354;9.756;2023-02-13T08:20:38;5.00;;;4.50;;
14592;SDS011;7383;52.354;9.756;2023-02-13T08:23:05;5.70;;;5.20;;
14592;SDS011;7383;52.354;9.756;2023-02-13T08:25:36;5.40;;;4.90;;
14592;SDS011;7383;52.354;9.756;2023-02-13T08:28:02;5.63;;;5.13;;
14592;SDS011;7383;52.354;9.756;2023-02-13T08:30:30;6.32;;;5.18;;
14592;SDS011;7383;52.354;9.756;2023-02-13T08:32:56;5.72;;;5.22;;
14592;SDS011;7383;52.354;9.756;2023-02-13T08:35:23;4.68;;;4.28;;
14592;SDS011;7383;52.354;9.756;2023-02-13T08:37:55;6.18;;;5.57;;
14592;SDS011;7383;52.354;9.756;2023-02-13T08:40:25;6.50;;;5.10;;
14592;SDS011;7383;52.354;9.756;2023-02-13T08:42:53;5.53;;;5.03;;
14592;SDS011;7383;52.354;9.756;2023-02-13T08:45:24;5.38;;;4.88;;
14592;SDS011;7383;52.354;9.756;2023-02-13T08:47:54;5.93;;;5.05;;
14592;SDS011;7383;52.354;9.756;2023-02-13T08:50:21;5.65;;;5.15;;
14592;SDS011;7383;52.354;9.756;2023-02-13T08:52:47;5.63;;;5.13;;
14592;SDS011;7383;52.354;9.756;2023-02-13T08:55:13;6.03;;;5.47;;
14592;SDS011;7383;52.354;9.756;2023-02-13T08:57:40;5.72;;;5.13;;
14592;SDS011;7383;52.354;9.756;2023-02-13T09:00:08;5.88;;;5.38;;
14592;SDS011;7383;52.354;9.756;2023-02-13T09:02:46;5.15;;;4.65;;
14592;SDS011;7383;52.354;9.756;2023-02-13T09:05:28;5.38;;;4.88;;
14592;SDS011;7383;52.354;9.756;2023-02-13T09:08:09;5.28;;;4.88;;
14592;SDS011;7383;52.354;9.756;2023-02-13T09:10:37;5.43;;;4.93;;
14592;SDS011;7383;52.354;9.756;2023-02-13T09:13:05;6.65;;;6.05;;
14592;SDS011;7383;52.354;9.756;2023-02-13T09:32:01;5.18;;;4.72;;
14592;SDS011;7383;52.354;9.756;2023-02-13T10:00:47;3.95;;;3.65;;
14592;SDS011;7383;52.354;9.756;2023-02-13T10:06:57;4.03;;;3.72;;
14592;SDS011;7383;52.354;9.756;2023-02-13T10:09:48;4.25;;;3.85;;
14592;SDS011;7383;52.354;9.756;2023-02-13T10:12:32;4.18;;;3.83;;
14592;SDS011;7383;52.354;9.756;2023-02-13T10:15:15;3.80;;;3.50;;
14592;SDS011;7383;52.354;9.756;2023-02-13T10:17:58;4.20;;;3.85;;
14592;SDS011;7383;52.354;9.756;2023-02-13T10:20:31;4.32;;;3.92;;
14592;SDS011;7383;52.354;9.756;2023-02-13T10:23:05;3.97;;;3.22;;
14592;SDS011;7383;52.354;9.756;2023-02-13T10:25:43;3.90;;;3.50;;
14592;SDS011;7383;52.354;9.756;2023-02-13T10:28:16;4.90;;;4.50;;
14592;SDS011;7383;52.354;9.756;2023-02-13T10:30:52;3.60;;;3.30;;
14592;SDS011;7383;52.354;9.756;2023-02-13T10:33:24;3.95;;;3.60;;
14592;SDS011;7383;52.354;9.756;2023-02-13T10:35:58;4.60;;;4.20;;
14592;SDS011;7383;52.354;9.756;2023-02-13T10:38:27;4.22;;;3.92;;
14592;SDS011;7383;52.354;9.756;2023-02-13T10:41:02;3.58;;;3.38;;
14592;SDS011;7383;52.354;9.756;2023-02-13T10:51:28;2.95;;;2.75;;
14592;SDS011;7383;52.354;9.756;2023-02-13T10:54:18;3.45;;;3.15;;
14592;SDS011;7383;52.354;9.756;2023-02-13T10:56:52;3.30;;;3.05;;
14592;SDS011;7383;52.354;9.756;2023-02-13T10:59:29;3.38;;;3.08;;
14592;SDS011;7383;52.354;9.756;2023-02-13T11:02:12;3.28;;;2.97;;
14592;SDS011;7383;52.354;9.756;2023-02-13T11:04:48;3.63;;;3.33;;
14592;SDS011;7383;52.354;9.756;2023-02-13T11:07:18;3.50;;;3.20;;
14592;SDS011;7383;52.354;9.756;2023-02-13T11:09:47;3.70;;;3.40;;
14592;SDS011;7383;52.354;9.756;2023-02-13T11:12:25;3.17;;;2.97;;
14592;SDS011;7383;52.354;9.756;2023-02-13T11:14:53;3.03;;;2.83;;
14592;SDS011;7383;52.354;9.756;2023-02-13T11:17:27;3.35;;;3.15;;
14592;SDS011;7383;52.354;9.756;2023-02-13T11:19:56;3.22;;;2.92;;
14592;SDS011;7383;52.354;9.756;2023-02-13T11:22:32;3.15;;;2.95;;
14592;SDS011;7383;52.354;9.756;2023-02-13T11:25:02;3.17;;;2.92;;
14592;SDS011;7383;52.354;9.756;2023-02-13T11:27:46;3.40;;;3.20;;
14592;SDS011;7383;52.354;9.756;2023-02-13T11:30:28;2.97;;;2.78;;
14592;SDS011;7383;52.354;9.756;2023-02-13T11:32:57;2.95;;;2.70;;
14592;SDS011;7383;52.354;9.756;2023-02-13T11:35:26;2.85;;;2.65;;
14592;SDS011;7383;52.354;9.756;2023-02-13T11:38:11;3.10;;;2.80;;
14592;SDS011;7383;52.354;9.756;2023-02-13T11:40:46;2.90;;;2.70;;
14592;SDS011;7383;52.354;9.756;2023-02-13T11:43:16;2.90;;;2.70;;
14592;SDS011;7383;52.354;9.756;2023-02-13T11:45:49;2.63;;;2.53;;
14592;SDS011;7383;52.354;9.756;2023-02-13T11:48:26;3.05;;;2.85;;
14592;SDS011;7383;52.354;9.756;2023-02-13T11:50:53;2.80;;;2.60;;
14592;SDS011;7383;52.354;9.756;2023-02-13T11:53:23;3.05;;;2.85;;
14592;SDS011;7383;52.354;9.756;2023-02-13T11:56:05;2.70;;;2.50;;
14592;SDS011;7383;52.354;9.756;2023-02-13T11:58:34;2.70;;;2.50;;
14592;SDS011;7383;52.354;9.756;2023-02-13T12:01:09;2.90;;;2.70;;
14592;SDS011;7383;52.354;9.756;2023-02-13T12:03:56;2.80;;;2.60;;
14592;SDS011;7383;52.354;9.756;2023-02-13T12:06:27;2.60;;;2.40;;
14592;SDS011;7383;52.354;9.756;2023-02-13T12:08:55;2.50;;;2.30;;
14592;SDS011;7383;52.354;9.756;2023-02-13T12:11:30;2.17;;;2.08;;
14592;SDS011;7383;52.354;9.756;2023-02-13T12:14:01;2.30;;;2.10;;
14592;SDS011;7383;52.354;9.756;2023-02-13T12:16:29;2.67;;;2.47;;
14592;SDS011;7383;52.354;9.756;2023-02-13T12:18:59;2.25;;;2.15;;
14592;SDS011;7383;52.354;9.756;2023-02-13T12:21:35;3.38;;;3.17;;
14592;SDS011;7383;52.354;9.756;2023-02-13T12:24:16;3.30;;;3.10;;
14592;SDS011;7383;52.354;9.756;2023-02-13T12:26:54;2.53;;;2.40;;
14592;SDS011;7383;52.354;9.756;2023-02-13T12:29:33;2.97;;;2.72;;
14592;SDS011;7383;52.354;9.756;2023-02-13T12:32:15;2.50;;;2.30;;
14592;SDS011;7383;52.354;9.756;2023-02-13T12:34:48;3.13;;;2.92;;
14592;SDS011;7383;52.354;9.756;2023-02-13T12:46:49;3.13;;;2.88;;
14592;SDS011;7383;52.354;9.756;2023-02-13T12:49:33;2.72;;;2.53;;
14592;SDS011;7383;52.354;9.756;2023-02-13T12:52:13;2.80;;;2.50;;
14592;SDS011;7383;52.354;9.756;2023-02-13T12:54:52;2.60;;;2.40;;
14592;SDS011;7383;52.354;9.756;2023-02-13T12:57:37;3.08;;;2.78;;
14592;SDS011;7383;52.354;9.756;2023-02-13T13:00:19;3.08;;;2.80;;
14592;SDS011;7383;52.354;9.756;2023-02-13T13:03:00;3.30;;;3.10;;
14592;SDS011;7383;52.354;9.756;2023-02-13T13:05:56;3.35;;;3.05;;
14592;SDS011;7383;52.354;9.756;2023-02-13T13:08:36;3.38;;;3.08;;
14592;SDS011;7383;52.354;9.756;2023-02-13T13:11:17;3.20;;;2.90;;
14592;SDS011;7383;52.354;9.756;2023-02-13T13:13:56;3.50;;;3.20;;
14592;SDS011;7383;52.354;9.756;2023-02-13T13:16:35;3.63;;;3.33;;
14592;SDS011;7383;52.354;9.756;2023-02-13T13:19:11;3.60;;;3.30;;
14592;SDS011;7383;52.354;9.756;2023-02-13T13:21:47;3.80;;;3.35;;
14592;SDS011;7383;52.354;9.756;2023-02-13T13:24:22;3.75;;;3.42;;
14592;SDS011;7383;52.354;9.756;2023-02-13T13:26:57;3.70;;;3.40;;
14592;SDS011;7383;52.354;9.756;2023-02-13T13:29:28;4.40;;;4.00;;
14592;SDS011;7383;52.354;9.756;2023-02-13T13:32:02;4.05;;;3.35;;
14592;SDS011;7383;52.354;9.756;2023-02-13T13:34:33;3.55;;;3.25;;
14592;SDS011;7383;52.354;9.756;2023-02-13T13:37:04;4.45;;;4.15;;
14592;SDS011;7383;52.354;9.756;2023-02-13T13:39:40;4.10;;;3.80;;
14592;SDS011;7383;52.354;9.756;2023-02-13T13:42:11;3.72;;;3.42;;
14592;SDS011;7383;52.354;9.756;2023-02-13T13:44:48;3.20;;;3.00;;
14592;SDS011;7383;52.354;9.756;2023-02-13T13:47:39;3.33;;;3.03;;
14592;SDS011;7383;52.354;9.756;2023-02-13T13:50:22;3.33;;;3.03;;
14592;SDS011;7383;52.354;9.756;2023-02-13T13:53:04;4.80;;;4.40;;
14592;SDS011;7383;52.354;9.756;2023-02-13T13:58:42;3.53;;;3.22;;
14592;SDS011;7383;52.354;9.756;2023-02-13T14:01:16;3.15;;;2.95;;
14592;SDS011;7383;52.354;9.756;2023-02-13T14:03:48;3.22;;;3.03;;
14592;SDS011;7383;52.354;9.756;2023-02-13T14:06:17;3.50;;;3.20;;
14592;SDS011;7383;52.354;9.756;2023-02-13T14:11:49;3.72;;;3.42;;
14592;SDS011;7383;52.354;9.756;2023-02-13T14:20:25;3.00;;;2.80;;
14592;SDS011;7383;52.354;9.756;2023-02-13T14:23:04;3.60;;;3.30;;
14592;SDS011;7383;52.354;9.756;2023-02-13T14:25:33;3.75;;;3.45;;
14592;SDS011;7383;52.354;9.756;2023-02-13T14:28:00;3.80;;;3.50;;
14592;SDS011;7383;52.354;9.756;2023-02-13T14:30:30;3.35;;;3.05;;
14592;SDS011;7383;52.354;9.756;2023-02-13T14:33:19;3.38;;;3.08;;
14592;SDS011;7383;52.354;9.756;2023-02-13T14:49:55;3.95;;;3.58;;
14592;SDS011;7383;52.354;9.756;2023-02-13T14:52:25;4.28;;;3.90;;
14592;SDS011;7383;52.354;9.756;2023-02-13T15:02:01;3.67;;;3.38;;
14592;SDS011;7383;52.354;9.756;2023-02-13T15:07:45;3.55;;;3.25;;
14592;SDS011;7383;52.354;9.756;2023-02-13T15:10:32;4.22;;;3.83;;
14592;SDS011;7383;52.354;9.756;2023-02-13T15:13:30;4.70;;;4.25;;
14592;SDS011;7383;52.354;9.756;2023-02-13T15:19:22;3.83;;;3.53;;
14592;SDS011;7383;52.354;9.756;2023-02-13T15:21:55;5.88;;;5.38;;
14592;SDS011;7383;52.354;9.756;2023-02-13T15:24:24;4.90;;;4.50;;
14592;SDS011;7383;52.354;9.756;2023-02-13T15:26:57;4.00;;;3.60;;
14592;SDS011;7383;52.354;9.756;2023-02-13T15:29:26;3.92;;;3.63;;
14592;SDS011;7383;52.354;9.756;2023-02-13T15:31:54;4.20;;;3.80;;
14592;SDS011;7383;52.354;9.756;2023-02-13T15:34:22;3.60;;;3.30;;
14592;SDS011;7383;52.354;9.756;2023-02-13T15:36:51;4.10;;;3.70;;
14592;SDS011;7383;52.354;9.756;2023-02-13T15:39:22;4.47;;;4.07;;
14592;SDS011;7383;52.354;9.756;2023-02-13T15:41:51;4.85;;;4.35;;
14592;SDS011;7383;52.354;9.756;2023-02-13T15:44:19;4.93;;;4.45;;
14592;SDS011;7383;52.354;9.756;2023-02-13T15:47:01;3.75;;;3.45;;
14592;SDS011;7383;52.354;9.756;2023-02-13T15:56:43;4.13;;;3.72;;
14592;SDS011;7383;52.354;9.756;2023-02-13T15:59:55;4.13;;;3.75;;
14592;SDS011;7383;52.354;9.756;2023-02-13T16:02:45;4.10;;;3.80;;
14592;SDS011;7383;52.354;9.756;2023-02-13T16:05:37;3.38;;;3.10;;
14592;SDS011;7383;52.354;9.756;2023-02-13T16:08:23;3.08;;;2.88;;
14592;SDS011;7383;52.354;9.756;2023-02-13T16:11:16;3.35;;;3.05;;
14592;SDS011;7383;52.354;9.756;2023-02-13T16:13:51;3.03;;;2.83;;
14592;SDS011;7383;52.354;9.756;2023-02-13T16:16:26;3.60;;;3.30;;
14592;SDS011;7383;52.354;9.756;2023-02-13T16:18:54;3.10;;;2.88;;
14592;SDS011;7383;52.354;9.756;2023-02-13T16:21:21;3.20;;;3.00;;
14592;SDS011;7383;52.354;9.756;2023-02-13T16:23:49;3.30;;;3.00;;
14592;SDS011;7383;52.354;9.756;2023-02-13T16:26:21;3.10;;;2.90;;
14592;SDS011;7383;52.354;9.756;2023-02-13T16:28:47;3.38;;;3.08;;
14592;SDS011;7383;52.354;9.756;2023-02-13T16:31:16;3.40;;;3.10;;
14592;SDS011;7383;52.354;9.756;2023-02-13T16:33:43;3.05;;;2.85;;
14592;SDS011;7383;52.354;9.756;2023-02-13T16:36:17;3.50;;;3.20;;
14592;SDS011;7383;52.354;9.756;2023-02-13T16:38:45;3.17;;;2.90;;
14592;SDS011;7383;52.354;9.756;2023-02-13T16:41:28;3.75;;;3.10;;
14592;SDS011;7383;52.354;9.756;2023-02-13T16:43:56;3.28;;;3.08;;
14592;SDS011;7383;52.354;9.756;2023-02-13T16:46:26;3.60;;;3.30;;
14592;SDS011;7383;52.354;9.756;2023-02-13T16:51:45;3.03;;;2.72;;
14592;SDS011;7383;52.354;9.756;2023-02-13T16:54:16;3.00;;;2.80;;
14592;SDS011;7383;52.354;9.756;2023-02-13T16:56:46;3.33;;;3.05;;
14592;SDS011;7383;52.354;9.756;2023-02-13T16:59:25;3.37;;;3.10;;
14592;SDS011;7383;52.354;9.756;2023-02-13T17:04:48;2.70;;;2.50;;
14592;SDS011;7383;52.354;9.756;2023-02-13T17:07:19;3.38;;;3.10;;
14592;SDS011;7383;52.354;9.756;2023-02-13T17:09:51;2.78;;;2.58;;
14592;SDS011;7383;52.354;9.756;2023-02-13T17:12:20;3.75;;;3.28;;
14592;SDS011;7383;52.354;9.756;2023-02-13T17:14:47;3.35;;;3.05;;
14592;SDS011;7383;52.354;9.756;2023-02-13T17:17:14;3.50;;;3.20;;
14592;SDS011;7383;52.354;9.756;2023-02-13T17:19:44;3.50;;;3.20;;
14592;SDS011;7383;52.354;9.756;2023-02-13T17:22:27;3.42;;;3.15;;
14592;SDS011;7383;52.354;9.756;2023-02-13T17:24:58;4.05;;;3.35;;
14592;SDS011;7383;52.354;9.756;2023-02-13T17:27:26;3.15;;;2.95;;
14592;SDS011;7383;52.354;9.756;2023-02-13T17:29:53;3.33;;;3.03;;
14592;SDS011;7383;52.354;9.756;2023-02-13T17:32:19;3.70;;;3.40;;
14592;SDS011;7383;52.354;9.756;2023-02-13T17:34:50;3.85;;;3.55;;
14592;SDS011;7383;52.354;9.756;2023-02-13T17:37:18;3.53;;;3.22;;
14592;SDS011;7383;52.354;9.756;2023-02-13T17:39:46;3.58;;;3.38;;
14592;SDS011;7383;52.354;9.756;2023-02-13T17:42:15;3.40;;;3.20;;
14592;SDS011;7383;52.354;9.756;2023-02-13T17:44:43;3.35;;;3.15;;